Time;durP1;ratioP1;P1;durP2;ratioP2;P2;SDS_P1;SDS_P2;PMS_P1;PMS_P2;Temp;Humidity;BMP_temperature;BMP_pressure;BME280_temperature;BME280_humidity;BME280_pressure;Samples;Min_cycle;Max_cycle;Signal;HPM_P1;HPM_P2
2022/01/03 00:00:11;;;;;;;15.63;5.93;;;;;;;7.91;100.00;99598.50;7392017;19;20423;-57
2022/01/03 00:02:42;;;;;;;17.50;6.90;;;;;;;7.87;100.00;99579.56;7398339;19;20375;-55
2022/01/03 00:05:12;;;;;;;17.90;6.90;;;;;;;7.91;100.00;99580.53;7396458;19;20423;-57
2022/01/03 00:07:45;;;;;;;17.97;8.07;;;;;;;8.02;100.00;99575.75;7397781;19;20485;-55
2022/01/03 00:10:16;;;;;;;23.63;7.90;;;;;;;7.97;100.00;99561.06;7394646;19;20427;-56
2022/01/03 00:12:46;;;;;;;14.80;7.33;;;;;;;7.96;100.00;99561.00;7397589;19;20398;-53
2022/01/03 00:15:20;;;;;;;17.83;7.27;;;;;;;7.99;100.00;99567.94;7393053;19;20411;-52
2022/01/03 00:17:53;;;;;;;13.73;7.93;;;;;;;7.89;100.00;99561.63;7397007;19;20391;-55
2022/01/03 00:20:23;;;;;;;19.60;8.10;;;;;;;7.93;100.00;99554.06;7392134;19;20491;-52
2022/01/03 00:22:56;;;;;;;18.90;7.03;;;;;;;7.84;100.00;99551.19;7397871;19;21042;-54
2022/01/03 00:25:27;;;;;;;23.00;8.87;;;;;;;7.82;100.00;99542.56;7393285;19;20491;-52
2022/01/03 00:28:02;;;;;;;22.70;7.77;;;;;;;7.88;100.00;99535.06;7397461;19;20430;-56
2022/01/03 00:30:37;;;;;;;19.57;7.90;;;;;;;7.81;100.00;99528.00;7394310;19;20419;-58
2022/01/03 00:33:08;;;;;;;20.20;6.80;;;;;;;7.79;100.00;99524.50;7397028;19;20394;-56
2022/01/03 00:35:40;;;;;;;16.73;7.70;;;;;;;7.77;100.00;99528.69;7394306;19;20423;-54
2022/01/03 00:38:10;;;;;;;14.83;6.00;;;;;;;7.69;100.00;99516.47;7396363;19;20772;-55
2022/01/03 00:40:41;;;;;;;20.23;7.20;;;;;;;7.76;100.00;99509.88;7390890;19;20432;-55
2022/01/03 00:43:10;;;;;;;14.63;6.27;;;;;;;7.76;100.00;99498.72;7397417;19;20849;-52
2022/01/03 00:45:42;;;;;;;11.50;5.30;;;;;;;7.71;100.00;99503.69;7397369;19;20439;-55
2022/01/03 00:48:13;;;;;;;8.63;4.40;;;;;;;7.73;100.00;99494.34;7395913;19;20422;-54
2022/01/03 00:50:43;;;;;;;14.13;5.50;;;;;;;7.70;100.00;99497.69;7391083;19;20414;-52
2022/01/03 00:53:12;;;;;;;12.60;5.47;;;;;;;7.69;100.00;99498.50;7396725;19;20885;-53
2022/01/03 00:55:50;;;;;;;6.10;2.90;;;;;;;7.61;100.00;99499.06;7398364;19;20490;-57
2022/01/03 00:58:22;;;;;;;6.93;2.80;;;;;;;7.52;100.00;99497.94;7402710;19;20926;-54
2022/01/03 01:00:57;;;;;;;8.37;3.37;;;;;;;7.51;100.00;99496.22;7399969;19;20521;-52
2022/01/03 01:03:31;;;;;;;10.83;3.60;;;;;;;7.49;100.00;99494.41;7404262;19;20851;-55
2022/01/03 01:06:02;;;;;;;9.77;3.13;;;;;;;7.45;100.00;99492.53;7398898;19;20445;-53
2022/01/03 01:08:32;;;;;;;16.80;2.20;;;;;;;7.34;100.00;99500.72;7401999;19;20432;-57
2022/01/03 01:11:04;;;;;;;7.33;2.20;;;;;;;7.26;100.00;99503.06;7400281;19;20478;-58
2022/01/03 01:13:34;;;;;;;6.43;3.20;;;;;;;7.32;100.00;99497.25;7403149;19;20391;-58
2022/01/03 01:16:09;;;;;;;3.80;2.00;;;;;;;7.48;100.00;99514.06;7400429;19;20475;-59
2022/01/03 01:18:39;;;;;;;4.73;2.03;;;;;;;7.34;100.00;99515.28;7401378;19;20402;-59
2022/01/03 01:21:09;;;;;;;9.03;2.27;;;;;;;7.11;100.00;99511.06;7397614;19;20495;-59
2022/01/03 01:23:41;;;;;;;9.00;2.10;;;;;;;7.09;100.00;99515.28;7403724;19;20395;-59
2022/01/03 01:28:53;;;;;;;7.63;1.80;;;;;;;6.95;100.00;99525.03;7400803;19;20467;-60
2022/01/03 01:31:27;;;;;;;6.57;2.67;;;;;;;6.91;100.00;99530.00;7399480;19;20474;-60
2022/01/03 01:33:58;;;;;;;12.90;2.97;;;;;;;6.89;100.00;99523.09;7402284;19;20400;-61
2022/01/03 01:36:29;;;;;;;7.57;2.47;;;;;;;6.88;100.00;99526.50;7396984;19;20435;-59
2022/01/03 01:39:03;;;;;;;6.53;3.30;;;;;;;6.86;100.00;99532.38;7401030;19;21035;-58
2022/01/03 01:41:32;;;;;;;3.67;1.90;;;;;;;6.79;100.00;99531.28;7399587;19;20435;-60
2022/01/03 01:44:03;;;;;;;7.57;2.20;;;;;;;6.78;100.00;99529.56;7402793;19;20392;-56
2022/01/03 01:46:36;;;;;;;8.17;1.83;;;;;;;6.74;100.00;99538.81;7398759;19;20415;-61
2022/01/03 01:49:07;;;;;;;3.67;1.90;;;;;;;6.74;100.00;99558.44;7400321;19;20415;-61
2022/01/03 01:51:37;;;;;;;8.23;2.13;;;;;;;6.72;100.00;99560.09;7398372;19;20471;-55
2022/01/03 01:54:08;;;;;;;3.60;1.90;;;;;;;6.73;100.00;99561.81;7401663;19;20406;-61
2022/01/03 01:56:41;;;;;;;6.27;2.27;;;;;;;6.70;100.00;99566.81;7400264;19;20790;-58
2022/01/03 01:59:13;;;;;;;4.23;2.17;;;;;;;6.67;100.00;99566.72;7399791;19;20423;-60
2022/01/03 02:01:50;;;;;;;4.40;1.90;;;;;;;6.66;100.00;99577.78;7404395;19;20447;-59
2022/01/03 02:04:34;;;;;;;8.70;1.80;;;;;;;6.64;100.00;99581.97;7396460;19;20395;-57
2022/01/03 02:07:19;;;;;;;4.20;1.97;;;;;;;6.62;100.00;99582.78;7400140;19;20399;-57
2022/01/03 02:10:00;;;;;;;4.70;1.70;;;;;;;6.57;100.00;99609.91;7395878;19;20407;-60
2022/01/03 02:12:30;;;;;;;3.43;1.50;;;;;;;6.53;100.00;99605.50;7402021;19;20467;-59
2022/01/03 02:15:00;;;;;;;2.57;1.97;;;;;;;6.52;100.00;99614.00;7397566;19;20410;-61
2022/01/03 02:17:32;;;;;;;3.40;2.47;;;;;;;6.52;100.00;99624.25;7400549;19;20459;-58
2022/01/03 02:20:13;;;;;;;4.50;2.50;;;;;;;6.51;100.00;99627.59;7397192;19;20872;-62
2022/01/03 02:22:44;;;;;;;3.10;2.10;;;;;;;6.48;100.00;99632.63;7394540;19;20749;-63
2022/01/03 02:25:15;;;;;;;4.17;2.37;;;;;;;6.46;100.00;99635.13;7397099;19;20426;-60
2022/01/03 02:27:46;;;;;;;4.07;2.27;;;;;;;6.42;100.00;99642.63;7400302;19;20452;-62
2022/01/03 02:30:18;;;;;;;3.43;2.07;;;;;;;6.41;100.00;99644.31;7396271;19;20410;-61
2022/01/03 02:32:47;;;;;;;7.90;1.70;;;;;;;6.35;100.00;99646.63;7401877;19;20396;-60
2022/01/03 02:35:20;;;;;;;4.17;1.40;;;;;;;6.32;100.00;99642.22;7396104;19;20456;-62
2022/01/03 02:37:51;;;;;;;8.10;1.57;;;;;;;6.32;100.00;99637.09;7400161;19;20399;-62
2022/01/03 02:40:21;;;;;;;5.20;2.33;;;;;;;6.23;100.00;99647.00;7396996;19;20416;-62
2022/01/03 02:42:51;;;;;;;4.53;1.23;;;;;;;6.23;100.00;99652.13;7400363;19;20407;-62
2022/01/03 02:45:22;;;;;;;3.50;1.37;;;;;;;6.25;100.00;99632.56;7399525;19;20419;-63
2022/01/03 02:47:55;;;;;;;5.60;1.27;;;;;;;6.22;100.00;99640.13;7399543;19;20860;-58
2022/01/03 02:50:30;;;;;;;3.60;1.20;;;;;;;6.20;100.00;99646.84;7396964;19;20405;-61
2022/01/03 02:52:59;;;;;;;5.77;1.10;;;;;;;6.17;100.00;99622.00;7399228;19;20406;-62
2022/01/03 02:55:29;;;;;;;4.03;1.33;;;;;;;6.11;100.00;99633.69;7397433;19;20429;-62
2022/01/03 02:58:06;;;;;;;2.07;0.83;;;;;;;6.14;100.00;99637.25;7400232;19;20438;-61
2022/01/03 03:00:44;;;;;;;7.63;1.57;;;;;;;6.12;100.00;99632.88;7395517;19;20417;-61
2022/01/03 03:03:14;;;;;;;6.83;1.10;;;;;;;6.11;100.00;99636.22;7400000;19;20467;-63
2022/01/03 03:05:47;;;;;;;5.97;1.00;;;;;;;6.07;100.00;99636.09;7397122;19;20416;-62
2022/01/03 03:08:16;;;;;;;5.77;1.13;;;;;;;6.10;100.00;99631.94;7398831;19;20479;-62
2022/01/03 03:10:47;;;;;;;7.87;1.20;;;;;;;6.07;100.00;99643.78;7395808;19;20418;-61
2022/01/03 03:13:16;;;;;;;7.33;1.30;;;;;;;6.09;100.00;99633.59;7399861;19;20405;-61
2022/01/03 03:15:46;;;;;;;6.53;1.27;;;;;;;6.15;100.00;99628.75;7397918;19;20859;-61
2022/01/03 03:18:15;;;;;;;5.53;1.40;;;;;;;6.10;100.00;99632.78;7396327;19;20458;-62
2022/01/03 03:20:47;;;;;;;4.40;1.43;;;;;;;6.10;100.00;99624.25;7395449;19;20729;-61
2022/01/03 03:23:17;;;;;;;7.33;1.70;;;;;;;6.05;100.00;99627.47;7399445;19;20384;-64
2022/01/03 03:25:46;;;;;;;10.70;1.70;;;;;;;6.08;100.00;99627.63;7395521;19;20482;-60
2022/01/03 03:28:17;;;;;;;6.93;1.07;;;;;;;6.02;100.00;99632.50;7398047;19;20426;-61
2022/01/03 03:30:48;;;;;;;10.57;2.17;;;;;;;6.01;100.00;99630.69;7395358;19;20415;-61
2022/01/03 03:33:19;;;;;;;6.23;2.40;;;;;;;6.06;100.00;99631.78;7399087;19;20387;-59
2022/01/03 03:35:52;;;;;;;9.90;2.00;;;;;;;6.11;100.00;99641.34;7394262;19;20483;-63
2022/01/03 03:38:25;;;;;;;6.80;1.60;;;;;;;6.05;100.00;99637.72;7397865;19;20471;-60
2022/01/03 03:40:54;;;;;;;6.70;2.23;;;;;;;6.08;100.00;99637.88;7394866;19;20454;-61
2022/01/03 03:43:24;;;;;;;5.50;1.53;;;;;;;6.11;100.00;99632.00;7399019;19;20455;-60
2022/01/03 03:45:54;;;;;;;8.97;2.37;;;;;;;6.18;100.00;99633.13;7395031;19;20442;-61
2022/01/03 03:48:23;;;;;;;24.23;2.70;;;;;;;6.13;100.00;99632.94;7397513;19;20423;-62
2022/01/03 03:50:55;;;;;;;8.23;2.57;;;;;;;6.14;100.00;99631.22;7394436;19;20473;-59
2022/01/03 03:53:26;;;;;;;8.87;2.73;;;;;;;6.15;100.00;99633.00;7398808;19;20391;-59
2022/01/03 03:55:55;;;;;;;6.33;2.93;;;;;;;6.17;100.00;99631.38;7394830;19;20449;-61
2022/01/03 03:58:25;;;;;;;8.27;1.90;;;;;;;6.17;100.00;99629.69;7398603;19;20422;-62
2022/01/03 04:00:54;;;;;;;13.60;2.87;;;;;;;6.19;100.00;99622.06;7394459;19;20477;-62
2022/01/03 04:03:38;;;;;;;7.70;2.53;;;;;;;6.22;100.00;99624.75;7398657;19;20413;-63
2022/01/03 04:06:11;;;;;;;8.73;3.20;;;;;;;6.34;100.00;99624.38;7395166;19;20427;-63
2022/01/03 04:08:40;;;;;;;12.63;4.07;;;;;;;6.31;100.00;99629.38;7396717;19;20422;-62
2022/01/03 04:11:09;;;;;;;11.13;4.60;;;;;;;6.31;100.00;99614.88;7394399;19;20489;-63
2022/01/03 04:13:39;;;;;;;14.27;4.00;;;;;;;6.31;100.00;99614.88;7398411;19;20855;-63
2022/01/03 04:16:09;;;;;;;9.33;2.67;;;;;;;6.31;100.00;99617.44;7392668;19;20514;-61
2022/01/03 04:18:38;;;;;;;16.30;4.43;;;;;;;6.34;100.00;99619.25;7395938;19;20774;-60
2022/01/03 04:21:11;;;;;;;11.73;3.30;;;;;;;6.37;100.00;99609.13;7393626;19;20488;-62
2022/01/03 04:23:40;;;;;;;17.70;5.33;;;;;;;6.38;100.00;99623.69;7397647;19;20398;-62
2022/01/03 04:26:11;;;;;;;16.33;4.73;;;;;;;6.41;100.00;99618.69;7394165;19;20421;-63
2022/01/03 04:28:40;;;;;;;12.57;4.93;;;;;;;6.43;100.00;99613.63;7400696;19;20449;-62
2022/01/03 04:31:10;;;;;;;7.13;2.97;;;;;;;6.45;100.00;99614.56;7401081;19;20415;-62
2022/01/03 04:33:39;;;;;;;13.23;4.50;;;;;;;6.47;100.00;99615.50;7405419;19;20395;-61
2022/01/03 04:36:12;;;;;;;34.93;5.70;;;;;;;6.50;100.00;99620.75;7399571;19;20437;-63
2022/01/03 04:38:41;;;;;;;15.13;4.87;;;;;;;6.48;100.00;99622.38;7403054;19;20425;-60
2022/01/03 04:41:12;;;;;;;12.90;4.00;;;;;;;6.48;100.00;99612.13;7400033;19;20417;-63
2022/01/03 04:43:42;;;;;;;10.40;4.07;;;;;;;6.50;100.00;99619.88;7405438;19;20832;-59
2022/01/03 04:46:11;;;;;;;9.27;3.40;;;;;;;6.49;100.00;99619.00;7401723;19;20891;-60
2022/01/03 04:48:42;;;;;;;17.00;4.03;;;;;;;6.56;100.00;99622.69;7402502;19;20424;-63
2022/01/03 04:51:15;;;;;;;16.60;3.23;;;;;;;6.54;100.00;99604.69;7400708;19;20440;-59
2022/01/03 04:53:45;;;;;;;20.03;4.60;;;;;;;6.61;100.00;99613.47;7408972;19;20467;-61
2022/01/03 04:56:16;;;;;;;11.57;2.90;;;;;;;6.56;100.00;99620.97;7399404;19;20429;-62
2022/01/03 04:58:46;;;;;;;14.47;3.90;;;;;;;6.57;100.00;99620.16;7402531;19;20429;-60
2022/01/03 05:01:15;;;;;;;15.47;3.70;;;;;;;6.58;100.00;99614.25;7399307;19;20411;-61
2022/01/03 05:03:45;;;;;;;13.20;4.07;;;;;;;6.65;100.00;99617.91;7404521;19;20391;-59
2022/01/03 05:06:17;;;;;;;12.00;3.20;;;;;;;6.60;100.00;99602.38;7399315;19;20427;-60
2022/01/03 05:08:47;;;;;;;27.00;2.80;;;;;;;6.62;100.00;99610.97;7402128;19;20486;-59
2022/01/03 05:11:16;;;;;;;7.53;2.20;;;;;;;6.64;100.00;99610.16;7399921;19;20483;-60
2022/01/03 05:13:46;;;;;;;27.07;5.67;;;;;;;6.70;100.00;99595.91;7404102;19;20384;-57
2022/01/03 05:16:16;;;;;;;15.27;4.10;;;;;;;6.69;100.00;99600.97;7398181;19;20537;-58
2022/01/03 05:18:46;;;;;;;17.30;3.10;;;;;;;6.67;100.00;99600.91;7402121;19;20423;-60
2022/01/03 05:21:19;;;;;;;12.40;2.87;;;;;;;6.68;100.00;99596.66;7396768;19;20478;-60
2022/01/03 05:23:49;;;;;;;12.17;2.67;;;;;;;6.70;100.00;99597.59;7403738;19;20455;-62
2022/01/03 05:26:19;;;;;;;8.70;2.30;;;;;;;6.66;100.00;99585.47;7399603;19;20475;-59
2022/01/03 05:28:48;;;;;;;15.03;2.40;;;;;;;6.67;100.00;99588.06;7401429;19;20424;-60
2022/01/03 05:31:18;;;;;;;20.83;3.30;;;;;;;6.68;100.00;99591.53;7398680;19;20887;-63
2022/01/03 05:33:47;;;;;;;17.03;3.40;;;;;;;6.70;100.00;99605.28;7403396;19;20409;-62
2022/01/03 05:36:20;;;;;;;15.60;5.53;;;;;;;6.70;100.00;99600.16;7397508;19;20443;-59
2022/01/03 05:38:49;;;;;;;13.33;2.70;;;;;;;6.70;100.00;99605.28;7401556;19;20430;-62
2022/01/03 05:41:18;;;;;;;19.97;3.73;;;;;;;6.74;100.00;99599.47;7397384;19;20673;-62
2022/01/03 05:43:49;;;;;;;19.07;3.70;;;;;;;6.80;100.00;99604.81;7402870;19;20392;-57
2022/01/03 05:46:18;;;;;;;15.60;4.00;;;;;;;6.79;100.00;99594.50;7398887;19;20420;-61
2022/01/03 05:48:48;;;;;;;17.60;4.07;;;;;;;6.75;100.00;99596.06;7400762;19;20424;-62
2022/01/03 05:51:20;;;;;;;15.93;2.73;;;;;;;6.73;100.00;99600.28;7397942;19;20443;-58
2022/01/03 05:53:49;;;;;;;7.50;2.10;;;;;;;6.74;100.00;99600.34;7402834;19;20916;-62
2022/01/03 05:56:19;;;;;;;13.77;2.80;;;;;;;6.74;100.00;99594.34;7397530;19;20423;-60
2022/01/03 05:58:49;;;;;;;17.53;3.40;;;;;;;6.80;100.00;99591.13;7404825;19;20511;-62
2022/01/03 06:01:19;;;;;;;14.43;2.80;;;;;;;6.72;100.00;99596.81;7398157;19;20415;-61
2022/01/03 06:03:58;;;;;;;12.57;2.13;;;;;;;6.70;100.00;99602.72;7402361;19;20379;-59
2022/01/03 06:06:53;;;;;;;20.80;3.70;;;;;;;6.73;100.00;99600.28;7395930;19;20419;-62
2022/01/03 06:09:23;;;;;;;37.57;4.70;;;;;;;6.78;100.00;99603.91;7396132;19;20448;-62
2022/01/03 06:11:54;;;;;;;8.47;2.23;;;;;;;6.77;100.00;99614.94;7402226;19;20462;-58
2022/01/03 06:14:24;;;;;;;6.93;1.90;;;;;;;6.74;100.00;99602.91;7398592;19;20730;-62
2022/01/03 06:16:54;;;;;;;45.33;4.17;;;;;;;6.77;100.00;99609.81;7400267;19;20458;-60
2022/01/03 06:19:24;;;;;;;8.33;2.43;;;;;;;6.76;100.00;99618.31;7394317;19;20494;-63
2022/01/03 06:21:56;;;;;;;10.13;2.37;;;;;;;6.79;100.00;99592.81;7400961;19;20391;-59
2022/01/03 06:24:26;;;;;;;5.83;2.03;;;;;;;6.78;100.00;99596.22;7398112;19;20398;-57
2022/01/03 06:27:00;;;;;;;11.00;2.40;;;;;;;6.77;100.00;99591.88;7401373;19;20873;-62
2022/01/03 06:29:29;;;;;;;17.03;3.23;;;;;;;6.80;100.00;99593.69;7396048;19;20426;-63
2022/01/03 06:31:59;;;;;;;15.60;3.77;;;;;;;6.78;100.00;99588.53;7403125;19;20402;-57
2022/01/03 06:34:28;;;;;;;22.30;4.43;;;;;;;6.80;100.00;99601.38;7397832;19;20741;-59
2022/01/03 06:37:01;;;;;;;14.77;2.50;;;;;;;6.81;100.00;99595.47;7399884;19;20388;-55
2022/01/03 06:39:31;;;;;;;29.37;4.63;;;;;;;6.81;100.00;99598.88;7395817;19;20411;-62
2022/01/03 06:42:00;;;;;;;25.47;4.10;;;;;;;6.81;100.00;99596.31;7402490;19;20738;-61
2022/01/03 06:44:30;;;;;;;19.83;3.10;;;;;;;6.80;100.00;99602.25;7397502;19;20396;-59
2022/01/03 06:47:00;;;;;;;16.07;3.27;;;;;;;6.83;100.00;99598.94;7400638;19;20392;-59
2022/01/03 06:49:30;;;;;;;24.63;3.43;;;;;;;6.87;100.00;99595.69;7393949;19;20423;-58
2022/01/03 06:52:02;;;;;;;31.50;2.60;;;;;;;6.88;100.00;99600.84;7400360;19;20460;-58
2022/01/03 06:54:33;;;;;;;26.70;4.13;;;;;;;6.89;100.00;99604.31;7397085;19;20710;-61
2022/01/03 06:57:03;;;;;;;23.40;3.97;;;;;;;6.91;100.00;99602.66;7402159;19;20467;-60
2022/01/03 06:59:33;;;;;;;11.63;2.40;;;;;;;6.88;100.00;99607.69;7399057;19;20415;-56
2022/01/03 07:02:02;;;;;;;20.50;4.30;;;;;;;6.89;100.00;99614.56;7400511;19;20466;-58
2022/01/03 07:04:32;;;;;;;25.10;4.70;;;;;;;6.89;100.00;99615.41;7396690;19;20448;-60
2022/01/03 07:07:08;;;;;;;14.60;3.00;;;;;;;6.89;100.00;99630.81;7399727;19;20392;-56
2022/01/03 07:09:38;;;;;;;17.13;3.67;;;;;;;6.95;100.00;99637.88;7394945;19;20399;-60
2022/01/03 07:12:11;;;;;;;24.80;5.50;;;;;;;6.91;100.00;99648.81;7400245;19;20457;-57
2022/01/03 07:20:09;;;;;;;28.83;6.07;;;;;;;7.05;100.00;99656.16;7395563;19;20482;-59
2022/01/03 07:22:42;;;;;;;23.93;4.03;;;;;;;6.96;100.00;99664.38;7399856;19;20392;-59
2022/01/03 07:25:12;;;;;;;16.07;3.20;;;;;;;6.91;100.00;99665.91;7395388;19;20426;-61
2022/01/03 07:27:41;;;;;;;18.73;3.17;;;;;;;6.92;100.00;99654.84;7403179;19;20407;-56
2022/01/03 07:30:12;;;;;;;24.10;4.13;;;;;;;6.87;100.00;99663.22;7395664;19;20419;-61
2022/01/03 07:32:44;;;;;;;16.87;3.63;;;;;;;6.87;100.00;99664.94;7398428;19;20384;-60
2022/01/03 07:35:16;;;;;;;22.67;4.83;;;;;;;6.93;100.00;99666.84;7394084;19;20710;-58
2022/01/03 07:37:48;;;;;;;18.77;3.20;;;;;;;6.89;100.00;99674.41;7397886;19;20407;-60
2022/01/03 07:40:17;;;;;;;17.97;3.50;;;;;;;6.89;100.00;99668.41;7395550;19;20682;-60
2022/01/03 07:42:47;;;;;;;20.97;4.30;;;;;;;6.91;100.00;99678.75;7399365;19;20475;-61
2022/01/03 07:45:16;;;;;;;16.53;3.07;;;;;;;6.92;100.00;99683.91;7395197;19;20688;-59
2022/01/03 07:47:46;;;;;;;24.57;3.53;;;;;;;6.94;100.00;99683.97;7398000;19;20414;-60
2022/01/03 07:50:16;;;;;;;11.73;2.70;;;;;;;6.92;100.00;99683.03;7394971;19;20406;-61
2022/01/03 07:52:48;;;;;;;15.43;3.10;;;;;;;6.93;100.00;99678.00;7399127;19;20448;-61
2022/01/03 07:55:19;;;;;;;11.80;2.47;;;;;;;6.93;100.00;99697.63;7395468;19;20758;-57
2022/01/03 07:57:49;;;;;;;28.93;4.37;;;;;;;6.89;100.00;99689.78;7396828;19;20411;-61
2022/01/03 08:00:19;;;;;;;16.53;3.20;;;;;;;6.83;100.00;99684.41;7394701;19;20403;-61
2022/01/03 08:02:49;;;;;;;24.97;2.67;;;;;;;6.79;100.00;99680.00;7398786;19;20420;-61
2022/01/03 08:05:19;;;;;;;14.77;2.80;;;;;;;6.77;100.00;99696.13;7400795;19;20723;-60
2022/01/03 08:07:51;;;;;;;20.30;3.47;;;;;;;6.77;100.00;99703.81;7405447;19;20485;-60
2022/01/03 08:10:23;;;;;;;10.77;2.77;;;;;;;6.76;100.00;99702.94;7399915;19;20411;-61
2022/01/03 08:12:52;;;;;;;17.87;3.63;;;;;;;6.80;100.00;99699.69;7406109;19;20395;-57
2022/01/03 08:15:23;;;;;;;11.70;2.70;;;;;;;6.77;100.00;99707.25;7401614;19;20438;-58
2022/01/03 08:17:53;;;;;;;22.40;3.87;;;;;;;6.77;100.00;99701.25;7403870;19;20438;-59
2022/01/03 08:20:24;;;;;;;20.03;2.50;;;;;;;6.75;100.00;99702.06;7400912;19;20474;-60
2022/01/03 08:22:56;;;;;;;20.67;3.23;;;;;;;6.81;100.00;99714.25;7405854;19;20387;-61
2022/01/03 08:25:25;;;;;;;15.83;3.70;;;;;;;6.77;100.00;99717.50;7400361;19;20417;-62
2022/01/03 08:27:55;;;;;;;14.93;3.83;;;;;;;6.81;100.00;99714.25;7404382;19;20467;-61
2022/01/03 08:30:24;;;;;;;17.93;3.80;;;;;;;6.81;100.00;99713.41;7401578;19;20927;-60
2022/01/03 08:32:54;;;;;;;26.00;3.50;;;;;;;6.81;100.00;99714.25;7405658;19;20451;-59
2022/01/03 08:35:24;;;;;;;10.00;2.23;;;;;;;6.82;100.00;99710.88;7400519;19;20421;-61
2022/01/03 08:37:56;;;;;;;12.20;2.77;;;;;;;6.84;100.00;99719.53;7408047;19;20419;-62
2022/01/03 08:40:26;;;;;;;23.40;3.20;;;;;;;6.85;100.00;99716.13;7399643;19;20470;-57
2022/01/03 08:42:56;;;;;;;35.97;6.60;;;;;;;6.88;100.00;99716.25;7405796;19;20386;-61
2022/01/03 08:45:25;;;;;;;15.13;3.27;;;;;;;6.89;100.00;99712.88;7400464;19;20419;-61
2022/01/03 08:47:55;;;;;;;25.87;5.80;;;;;;;6.91;100.00;99719.78;7403709;19;20402;-56
2022/01/03 08:50:24;;;;;;;19.57;3.40;;;;;;;6.85;100.00;99726.41;7403389;19;20514;-54
2022/01/03 08:52:56;;;;;;;23.70;3.80;;;;;;;6.84;100.00;99713.50;7405123;19;20413;-61
2022/01/03 08:55:26;;;;;;;19.10;3.33;;;;;;;6.82;100.00;99716.00;7400280;19;20946;-58
2022/01/03 08:57:56;;;;;;;24.37;4.50;;;;;;;6.82;100.00;99726.25;7403139;19;20884;-57
2022/01/03 09:00:26;;;;;;;28.70;4.10;;;;;;;6.85;100.00;99717.81;7400386;19;20486;-58
2022/01/03 09:02:55;;;;;;;17.07;1.87;;;;;;;6.82;100.00;99723.69;7404393;19;20848;-60
2022/01/03 09:05:25;;;;;;;20.53;3.50;;;;;;;6.84;100.00;99722.09;7399398;19;20887;-59
2022/01/03 09:07:57;;;;;;;15.87;3.00;;;;;;;6.83;100.00;99719.44;7403160;19;20745;-61
2022/01/03 09:10:26;;;;;;;32.40;3.33;;;;;;;6.81;100.00;99727.06;7398771;19;20423;-59
2022/01/03 09:12:56;;;;;;;20.43;3.93;;;;;;;6.83;100.00;99733.13;7404323;19;20459;-58
2022/01/03 09:15:27;;;;;;;16.10;3.23;;;;;;;6.84;100.00;99734.91;7394796;19;20415;-59
2022/01/03 09:17:56;;;;;;;12.23;2.13;;;;;;;6.83;100.00;99728.00;7402690;19;20414;-61
2022/01/03 09:20:26;;;;;;;21.10;3.23;;;;;;;6.87;100.00;99729.88;7401891;19;20431;-60
2022/01/03 09:23:07;;;;;;;25.23;3.80;;;;;;;6.87;100.00;99724.75;7401646;19;20380;-60
2022/01/03 09:31:00;;;;;;;14.13;4.53;;;;;;;6.81;100.00;99728.78;7399487;19;20438;-60
2022/01/03 09:33:30;;;;;;;37.27;5.83;;;;;;;6.84;100.00;99718.63;7406551;19;20419;-59
2022/01/03 09:35:59;;;;;;;33.83;4.33;;;;;;;6.73;100.00;99713.94;7397658;19;20426;-60
2022/01/03 09:38:32;;;;;;;20.30;3.50;;;;;;;6.70;100.00;99721.50;7401969;19;20423;-61
2022/01/03 09:41:04;;;;;;;32.77;3.83;;;;;;;6.69;100.00;99713.75;7398127;19;20414;-59
2022/01/03 09:43:38;;;;;;;28.70;4.50;;;;;;;6.68;100.00;99722.25;7402679;19;20384;-61
2022/01/03 09:46:10;;;;;;;31.40;4.33;;;;;;;6.67;100.00;99723.09;7398664;19;20429;-61
2022/01/03 09:48:40;;;;;;;17.53;4.57;;;;;;;6.65;100.00;99727.28;7404074;19;20492;-59
2022/01/03 09:51:11;;;;;;;27.90;4.83;;;;;;;6.66;100.00;99713.66;7398906;19;20414;-60
2022/01/03 09:53:44;;;;;;;25.33;5.43;;;;;;;6.71;100.00;99707.00;7402484;19;20458;-61
2022/01/03 09:56:13;;;;;;;18.17;3.80;;;;;;;6.73;100.00;99706.25;7398179;19;20483;-60
2022/01/03 09:58:43;;;;;;;26.13;3.63;;;;;;;6.72;100.00;99713.91;7400322;19;20431;-60
2022/01/03 10:01:12;;;;;;;18.80;3.97;;;;;;;6.75;100.00;99708.88;7394189;19;20482;-61
2022/01/03 10:03:47;;;;;;;37.33;6.20;;;;;;;6.75;100.00;99704.63;7402069;19;20478;-60
2022/01/03 10:06:20;;;;;;;32.23;6.23;;;;;;;6.74;100.00;99709.69;7396693;19;20425;-62
2022/01/03 10:08:53;;;;;;;19.57;5.13;;;;;;;6.74;100.00;99708.03;7400150;19;20435;-60
2022/01/03 10:11:23;;;;;;;20.77;3.40;;;;;;;6.79;100.00;99702.19;7396320;19;20697;-62
2022/01/03 10:13:52;;;;;;;35.10;5.43;;;;;;;6.81;100.00;99698.88;7401975;19;20455;-62
2022/01/03 10:16:22;;;;;;;20.73;5.00;;;;;;;6.86;100.00;99704.19;7397302;19;20415;-60
2022/01/03 10:19:12;;;;;;;18.77;5.20;;;;;;;6.91;100.00;99696.69;7399778;19;20435;-60
2022/01/03 10:21:43;;;;;;;43.67;5.20;;;;;;;6.93;100.00;99692.47;7400183;19;20422;-61
2022/01/03 10:24:16;;;;;;;30.67;5.07;;;;;;;6.99;100.00;99687.59;7401500;19;20398;-60
2022/01/03 10:26:54;;;;;;;36.80;4.23;;;;;;;7.05;100.00;99692.06;7399205;19;20419;-60
2022/01/03 10:29:25;;;;;;;37.87;7.00;;;;;;;7.04;100.00;99680.97;7395707;19;20419;-61
2022/01/03 10:31:57;;;;;;;34.90;5.33;;;;;;;7.01;100.00;99680.81;7400889;19;20406;-57
2022/01/03 10:34:27;;;;;;;24.93;6.30;;;;;;;7.09;100.00;99679.47;7397056;19;20395;-60
2022/01/03 10:36:59;;;;;;;45.43;9.80;;;;;;;7.21;100.00;99673.03;7401047;19;20837;-60
2022/01/03 10:39:34;;;;;;;22.73;6.07;;;;;;;7.28;100.00;99659.63;7398813;19;20483;-59
2022/01/03 10:42:15;;;;;;;46.70;12.13;;;;;;;7.28;100.00;99660.50;7403017;19;20726;-62
2022/01/03 10:44:45;;;;;;;146.73;31.23;;;;;;;7.40;100.00;99665.19;7400842;19;20462;-59
2022/01/03 10:47:18;;;;;;;21.83;3.93;;;;;;;7.37;100.00;99670.22;7400265;19;20451;-59
2022/01/03 10:49:48;;;;;;;38.47;9.43;;;;;;;7.40;100.00;99660.06;7396039;19;20671;-62
2022/01/03 10:52:19;;;;;;;28.97;7.33;;;;;;;7.54;100.00;99662.28;7400491;19;20391;-60
2022/01/03 10:55:11;;;;;;;99.33;23.37;;;;;;;7.48;100.00;99656.94;7396025;19;20424;-60
2022/01/03 10:57:53;;;;;;;25.40;4.10;;;;;;;7.42;100.00;99653.31;7399188;19;20415;-60
2022/01/03 11:00:26;;;;;;;15.17;2.37;;;;;;;7.36;100.00;99652.19;7396589;19;20415;-61
2022/01/03 11:03:15;;;;;;;16.53;3.63;;;;;;;7.53;100.00;99657.94;7401253;19;20455;-60
2022/01/03 11:05:49;;;;;;;27.33;6.90;;;;;;;7.57;100.00;99662.38;7395086;19;20418;-59
2022/01/03 11:11:03;;;;;;;19.80;3.27;;;;;;;7.34;100.00;99652.13;7396150;19;20757;-61
2022/01/03 11:13:33;;;;;;;15.80;3.80;;;;;;;7.45;100.00;99654.22;7399786;19;20384;-60
2022/01/03 11:16:04;;;;;;;24.07;3.60;;;;;;;7.37;100.00;99649.69;7393943;19;20426;-56
2022/01/03 11:18:35;;;;;;;23.17;3.13;;;;;;;7.43;100.00;99655.06;7398043;19;20475;-61
2022/01/03 11:21:12;;;;;;;17.03;3.73;;;;;;;7.47;100.00;99653.47;7394287;19;20935;-57
2022/01/03 11:23:42;;;;;;;28.83;4.80;;;;;;;7.60;100.00;99641.09;7400786;19;20395;-60
2022/01/03 11:26:16;;;;;;;33.53;5.10;;;;;;;7.63;100.00;99626.66;7394318;19;20499;-60
2022/01/03 11:28:46;;;;;;;10.43;2.90;;;;;;;7.55;100.00;99648.63;7398237;19;20488;-60
2022/01/03 11:31:17;;;;;;;30.90;4.63;;;;;;;7.53;100.00;99625.47;7393459;19;20494;-60
2022/01/03 11:33:48;;;;;;;19.97;4.27;;;;;;;7.51;100.00;99639.94;7397902;19;20394;-60
2022/01/03 11:36:39;;;;;;;35.67;5.30;;;;;;;7.59;100.00;99645.34;7395270;19;20907;-58
2022/01/03 11:39:11;;;;;;;15.63;2.13;;;;;;;7.59;100.00;99645.34;7397643;19;20416;-61
2022/01/03 11:41:45;;;;;;;23.00;4.80;;;;;;;7.67;100.00;99641.38;7400895;19;20452;-63
2022/01/03 11:44:16;;;;;;;37.70;5.27;;;;;;;7.66;100.00;99621.66;7399125;19;20848;-61
2022/01/03 11:46:48;;;;;;;15.93;1.77;;;;;;;7.55;100.00;99644.34;7397908;19;20395;-60
2022/01/03 11:49:19;;;;;;;25.33;4.90;;;;;;;7.62;100.00;99637.75;7392689;19;20438;-60
2022/01/03 11:51:49;;;;;;;23.73;4.10;;;;;;;7.55;100.00;99638.34;7398130;19;20407;-62
2022/01/03 11:54:21;;;;;;;15.70;2.07;;;;;;;7.50;100.00;99650.16;7394676;19;20411;-61
2022/01/03 11:57:08;;;;;;;23.03;2.73;;;;;;;7.50;100.00;99651.03;7398529;19;20391;-62
2022/01/03 12:05:56;;;;;;;20.07;2.73;;;;;;;7.58;100.00;99653.84;7391349;19;20414;-60
2022/01/03 12:08:29;;;;;;;3.50;1.37;;;;;;;7.61;100.00;99648.84;7398082;19;20696;-62